createdAt,value
2023-04-08T00:01:38.545Z,100.00
2023-04-08T00:04:10.444Z,100.00
2023-04-08T00:06:41.612Z,100.00
2023-04-08T00:09:11.112Z,100.00
2023-04-08T00:11:42.219Z,100.00
2023-04-08T00:14:12.220Z,100.00
2023-04-08T00:16:42.373Z,100.00
2023-04-08T00:19:13.260Z,100.00
2023-04-08T00:21:43.795Z,100.00
2023-04-08T00:24:13.388Z,100.00
2023-04-08T00:26:42.821Z,100.00
2023-04-08T00:29:11.978Z,100.00
2023-04-08T00:31:42.900Z,100.00
2023-04-08T00:34:14.397Z,100.00
2023-04-08T00:36:45.368Z,100.00
2023-04-08T00:39:15.302Z,100.00
2023-04-08T00:41:45.827Z,100.00
2023-04-08T00:44:16.457Z,100.00
2023-04-08T00:46:45.891Z,100.00
2023-04-08T00:49:17.620Z,100.00
2023-04-08T00:51:48.039Z,100.00
2023-04-08T00:54:18.671Z,100.00
2023-04-08T00:56:48.815Z,100.00
2023-04-08T00:59:20.988Z,100.00
2023-04-08T01:02:00.692Z,100.00
2023-04-08T01:04:46.494Z,100.00
2023-04-08T01:07:21.295Z,100.00
2023-04-08T01:09:56.749Z,100.00
2023-04-08T01:12:29.997Z,100.00
2023-04-08T01:15:05.517Z,100.00
2023-04-08T01:17:36.093Z,100.00
2023-04-08T01:20:11.727Z,100.00
2023-04-08T01:23:04.844Z,100.00
2023-04-08T01:25:38.632Z,100.00
2023-04-08T01:28:15.426Z,100.00
2023-04-08T01:30:46.333Z,100.00
2023-04-08T01:33:20.307Z,100.00
2023-04-08T01:35:54.731Z,100.00
2023-04-08T01:38:27.061Z,100.00
2023-04-08T01:40:59.502Z,100.00
2023-04-08T01:43:32.276Z,100.00
2023-04-08T01:46:04.648Z,100.00
2023-04-08T01:48:34.476Z,100.00
2023-04-08T01:51:06.627Z,100.00
2023-04-08T01:53:36.672Z,100.00
2023-04-08T01:56:13.896Z,100.00
2023-04-08T01:58:53.379Z,100.00
2023-04-08T02:01:27.292Z,100.00
2023-04-08T02:04:00.326Z,100.00
2023-04-08T02:06:32.058Z,100.00
2023-04-08T02:09:02.794Z,100.00
2023-04-08T02:11:32.201Z,100.00
2023-04-08T02:14:02.698Z,100.00
2023-04-08T02:16:42.644Z,100.00
2023-04-08T02:19:19.604Z,100.00
2023-04-08T02:21:54.903Z,100.00
2023-04-08T02:24:24.652Z,100.00
2023-04-08T02:26:57.453Z,100.00
2023-04-08T02:29:32.660Z,100.00
2023-04-08T02:32:05.803Z,100.00
2023-04-08T02:34:37.737Z,100.00
2023-04-08T02:37:07.377Z,100.00
2023-04-08T02:39:37.343Z,100.00
2023-04-08T02:42:06.525Z,100.00
2023-04-08T02:44:38.692Z,100.00
2023-04-08T02:47:09.371Z,100.00
2023-04-08T02:49:39.427Z,100.00
2023-04-08T02:52:08.902Z,100.00
2023-04-08T02:54:38.815Z,100.00
2023-04-08T02:57:09.438Z,100.00
2023-04-08T02:59:41.617Z,100.00
2023-04-08T03:02:12.116Z,100.00
2023-04-08T03:04:41.578Z,100.00
2023-04-08T03:07:14.158Z,100.00
2023-04-08T03:09:42.979Z,100.00
2023-04-08T03:12:13.041Z,100.00
2023-04-08T03:14:44.275Z,100.00
2023-04-08T03:17:14.269Z,100.00
2023-04-08T03:19:44.142Z,100.00
2023-04-08T03:22:13.853Z,100.00
2023-04-08T03:24:43.344Z,100.00
2023-04-08T03:27:13.440Z,100.00
2023-04-08T03:29:46.387Z,100.00
2023-04-08T03:32:15.994Z,100.00
2023-04-08T03:34:46.050Z,100.00
2023-04-08T03:37:15.573Z,100.00
2023-04-08T03:39:43.973Z,100.00
2023-04-08T03:42:13.768Z,100.00
2023-04-08T03:44:44.529Z,100.00
2023-04-08T03:47:14.475Z,100.00
2023-04-08T03:49:44.014Z,100.00
2023-04-08T03:52:12.908Z,100.00
2023-04-08T03:54:42.951Z,100.00
2023-04-08T03:57:12.672Z,100.00
2023-04-08T03:59:44.700Z,100.00
2023-04-08T04:02:13.671Z,100.00
2023-04-08T04:04:44.344Z,100.00
2023-04-08T04:07:14.423Z,100.00
2023-04-08T04:09:43.758Z,100.00
2023-04-08T04:12:13.279Z,100.00
2023-04-08T04:14:44.600Z,100.00
2023-04-08T04:17:14.657Z,100.00
2023-04-08T04:19:44.536Z,100.00
2023-04-08T04:22:15.595Z,100.00
2023-04-08T04:24:49.195Z,100.00
2023-04-08T04:27:18.701Z,100.00
2023-04-08T04:29:51.015Z,100.00
2023-04-08T04:32:20.378Z,100.00
2023-04-08T04:34:49.866Z,100.00
2023-04-08T04:37:19.849Z,100.00
2023-04-08T04:39:48.946Z,100.00
2023-04-08T04:42:17.984Z,100.00
2023-04-08T04:44:50.064Z,100.00
2023-04-08T04:47:19.570Z,100.00
2023-04-08T04:49:49.331Z,100.00
2023-04-08T04:52:19.088Z,100.00
2023-04-08T04:54:49.150Z,100.00
2023-04-08T04:57:19.368Z,100.00
2023-04-08T04:59:50.518Z,100.00
2023-04-08T05:02:20.609Z,100.00
2023-04-08T05:04:49.804Z,100.00
2023-04-08T05:07:19.405Z,100.00
2023-04-08T05:09:48.997Z,100.00
2023-04-08T05:12:20.659Z,100.00
2023-04-08T05:14:51.012Z,100.00
2023-04-08T05:17:21.791Z,100.00
2023-04-08T05:19:52.118Z,100.00
2023-04-08T05:22:22.232Z,100.00
2023-04-08T05:24:52.629Z,100.00
2023-04-08T05:27:22.691Z,100.00
2023-04-08T05:29:54.406Z,100.00
2023-04-08T05:32:23.449Z,100.00
2023-04-08T05:34:54.301Z,100.00
2023-04-08T05:37:23.284Z,100.00
2023-04-08T05:39:54.384Z,100.00
2023-04-08T05:42:24.023Z,100.00
2023-04-08T05:44:53.862Z,100.00
2023-04-08T05:47:22.952Z,100.00
2023-04-08T05:49:53.161Z,100.00
2023-04-08T05:52:22.483Z,100.00
2023-04-08T05:54:53.179Z,100.00
2023-04-08T05:57:22.159Z,100.00
2023-04-08T05:59:51.811Z,100.00
2023-04-08T06:02:23.324Z,100.00
2023-04-08T06:04:52.976Z,100.00
2023-04-08T06:07:22.529Z,100.00
2023-04-08T06:09:51.539Z,100.00
2023-04-08T06:12:21.241Z,100.00
2023-04-08T06:14:55.210Z,100.00
2023-04-08T06:17:26.231Z,100.00
2023-04-08T06:19:58.792Z,100.00
2023-04-08T06:22:28.572Z,100.00
2023-04-08T06:24:57.669Z,100.00
2023-04-08T06:27:26.574Z,100.00
2023-04-08T06:29:56.447Z,100.00
2023-04-08T06:32:28.470Z,100.00
2023-04-08T06:34:59.247Z,100.00
2023-04-08T06:37:29.391Z,100.00
2023-04-08T06:39:59.258Z,100.00
2023-04-08T06:42:28.809Z,100.00
2023-04-08T06:45:00.692Z,100.00
2023-04-08T06:47:31.815Z,100.00
2023-04-08T06:50:01.726Z,100.00
2023-04-08T06:52:31.372Z,100.00
2023-04-08T06:55:00.425Z,100.00
2023-04-08T06:57:29.817Z,100.00
2023-04-08T07:00:00.949Z,100.00
2023-04-08T07:02:32.356Z,100.00
2023-04-08T07:05:02.650Z,100.00
2023-04-08T07:07:32.761Z,100.00
2023-04-08T07:10:02.300Z,100.00
2023-04-08T07:12:32.809Z,100.00
2023-04-08T07:15:02.050Z,100.00
2023-04-08T07:17:33.401Z,100.00
2023-04-08T07:20:04.155Z,100.00
2023-04-08T07:22:34.714Z,100.00
2023-04-08T07:25:04.394Z,100.00
2023-04-08T07:27:34.669Z,100.00
2023-04-08T07:30:04.185Z,100.00
2023-04-08T07:32:37.318Z,100.00
2023-04-08T07:35:07.339Z,100.00
2023-04-08T07:37:36.294Z,100.00
2023-04-08T07:40:07.330Z,100.00
2023-04-08T07:42:37.155Z,100.00
2023-04-08T07:45:10.614Z,100.00
2023-04-08T07:47:42.275Z,100.00
2023-04-08T07:50:12.042Z,100.00
2023-04-08T07:52:42.372Z,100.00
2023-04-08T07:55:12.199Z,100.00
2023-04-08T07:57:42.305Z,100.00
2023-04-08T08:00:21.410Z,100.00
2023-04-08T08:02:52.495Z,100.00
2023-04-08T08:05:22.896Z,100.00
2023-04-08T08:07:52.379Z,100.00
2023-04-08T08:10:21.849Z,100.00
2023-04-08T08:12:53.001Z,100.00
2023-04-08T08:15:23.050Z,100.00
2023-04-08T08:17:54.408Z,100.00
2023-04-08T08:20:23.858Z,100.00
2023-04-08T08:22:57.613Z,100.00
2023-04-08T08:25:27.727Z,100.00
2023-04-08T08:27:57.685Z,100.00
2023-04-08T08:30:28.279Z,100.00
2023-04-08T08:33:00.646Z,100.00
2023-04-08T08:35:31.104Z,100.00
2023-04-08T08:38:01.876Z,100.00
2023-04-08T08:40:31.917Z,100.00
2023-04-08T08:43:02.068Z,100.00
2023-04-08T08:45:31.310Z,100.00
2023-04-08T08:48:02.200Z,100.00
2023-04-08T08:50:31.313Z,100.00
2023-04-08T08:53:00.780Z,100.00
2023-04-08T08:56:00.006Z,100.00
2023-04-08T08:58:25.345Z,100.00
2023-04-08T09:00:55.504Z,100.00
2023-04-08T09:03:29.273Z,100.00
2023-04-08T09:06:02.250Z,100.00
2023-04-08T09:08:34.437Z,100.00
2023-04-08T09:11:17.350Z,100.00
2023-04-08T09:13:48.557Z,100.00
2023-04-08T09:16:20.769Z,100.00
2023-04-08T09:18:52.416Z,100.00
2023-04-08T09:21:27.445Z,100.00
2023-04-08T09:23:57.655Z,100.00
2023-04-08T09:26:27.702Z,100.00
2023-04-08T09:29:14.741Z,100.00
2023-04-08T09:31:58.123Z,100.00
2023-04-08T09:34:33.083Z,100.00
2023-04-08T09:37:03.071Z,100.00
2023-04-08T09:39:32.458Z,100.00
2023-04-08T09:42:08.287Z,100.00
2023-04-08T09:44:39.183Z,100.00
2023-04-08T09:47:20.207Z,100.00
2023-04-08T09:50:00.094Z,100.00
2023-04-08T09:52:40.174Z,100.00
2023-04-08T09:55:14.264Z,100.00
2023-04-08T09:57:48.571Z,100.00
2023-04-08T10:00:19.715Z,100.00
2023-04-08T10:03:05.139Z,100.00
2023-04-08T10:05:41.913Z,100.00
2023-04-08T10:08:13.047Z,100.00
2023-04-08T10:10:44.091Z,100.00
2023-04-08T10:13:14.995Z,100.00
2023-04-08T10:15:45.793Z,100.00
2023-04-08T10:18:34.590Z,100.00
2023-04-08T10:21:06.027Z,100.00
2023-04-08T10:23:59.801Z,100.00
2023-04-08T10:26:39.724Z,100.00
2023-04-08T10:29:35.476Z,100.00
2023-04-08T10:32:05.391Z,100.00
2023-04-08T10:34:36.151Z,100.00
2023-04-08T10:37:09.737Z,100.00
2023-04-08T10:39:38.852Z,100.00
2023-04-08T10:42:11.298Z,100.00
2023-04-08T10:44:46.204Z,100.00
2023-04-08T10:47:15.206Z,100.00
2023-04-08T10:49:45.220Z,100.00
2023-04-08T10:52:17.220Z,100.00
2023-04-08T10:54:50.275Z,100.00
2023-04-08T10:57:27.584Z,100.00
2023-04-08T10:59:58.008Z,100.00
2023-04-08T11:02:34.893Z,100.00
2023-04-08T11:05:04.540Z,100.00
2023-04-08T11:07:34.987Z,100.00
2023-04-08T11:10:07.272Z,100.00
2023-04-08T11:12:37.594Z,100.00
2023-04-08T11:15:11.686Z,100.00
2023-04-08T11:17:42.656Z,100.00
2023-04-08T11:20:12.400Z,100.00
2023-04-08T11:22:44.606Z,100.00
2023-04-08T11:25:14.444Z,100.00
2023-04-08T11:27:44.411Z,100.00
2023-04-08T11:30:16.119Z,100.00
2023-04-08T11:32:46.729Z,100.00
2023-04-08T11:35:19.278Z,100.00
2023-04-08T11:37:50.173Z,100.00
2023-04-08T11:40:24.572Z,100.00
2023-04-08T11:42:55.090Z,100.00
2023-04-08T11:45:25.929Z,97.73
2023-04-08T11:47:56.505Z,95.39
2023-04-08T11:50:27.358Z,98.10
2023-04-08T11:52:59.039Z,96.89
2023-04-08T11:55:31.293Z,98.66
2023-04-08T11:58:07.620Z,97.00
2023-04-08T12:00:37.835Z,94.25
2023-04-08T12:03:08.282Z,91.02
2023-04-08T12:05:38.236Z,91.50
2023-04-08T12:08:08.863Z,93.97
2023-04-08T12:10:39.466Z,93.25
2023-04-08T12:13:08.633Z,92.03
2023-04-08T12:15:39.031Z,92.58
2023-04-08T12:18:08.072Z,91.94
2023-04-08T12:20:37.634Z,94.05
2023-04-08T12:23:08.522Z,95.63
2023-04-08T12:25:37.985Z,98.04
2023-04-08T12:28:10.314Z,98.44
2023-04-08T12:30:40.375Z,100.00
2023-04-08T12:33:13.616Z,99.34
2023-04-08T12:35:44.102Z,100.00
2023-04-08T12:38:15.652Z,100.00
2023-04-08T12:40:45.702Z,100.00
2023-04-08T12:43:14.615Z,98.82
2023-04-08T12:45:45.045Z,96.52
2023-04-08T12:48:16.054Z,96.01
2023-04-08T12:50:46.179Z,95.30
2023-04-08T12:53:17.204Z,96.94
2023-04-08T12:55:48.726Z,96.42
2023-04-08T12:58:20.329Z,97.00
2023-04-08T13:00:52.104Z,94.11
2023-04-08T13:03:21.713Z,91.44
2023-04-08T13:05:51.446Z,91.26
2023-04-08T13:08:22.908Z,89.67
2023-04-08T13:10:51.968Z,90.42
2023-04-08T13:13:22.011Z,94.52
2023-04-08T13:15:51.012Z,95.75
2023-04-08T13:18:21.552Z,93.75
2023-04-08T13:20:51.503Z,93.48
2023-04-08T13:23:23.078Z,94.22
2023-04-08T13:25:53.074Z,95.41
2023-04-08T13:28:23.609Z,93.69
2023-04-08T13:30:54.436Z,93.09
2023-04-08T13:33:24.628Z,90.99
2023-04-08T13:35:55.170Z,90.16
2023-04-08T13:38:27.913Z,91.36
2023-04-08T13:40:57.641Z,91.09
2023-04-08T13:43:28.238Z,89.91
2023-04-08T13:45:57.771Z,89.96
2023-04-08T13:48:27.289Z,89.89
2023-04-08T13:50:56.564Z,85.75
2023-04-08T13:53:27.923Z,83.18
2023-04-08T13:55:59.610Z,82.19
2023-04-08T13:58:29.756Z,81.07
2023-04-08T14:00:59.821Z,81.76
2023-04-08T14:03:29.871Z,83.18
2023-04-08T14:06:01.714Z,84.07
2023-04-08T14:08:32.401Z,82.46
2023-04-08T14:11:01.831Z,82.89
2023-04-08T14:13:33.070Z,87.76
2023-04-08T14:16:03.724Z,85.95
2023-04-08T14:18:33.661Z,86.63
2023-04-08T14:21:02.703Z,86.12
2023-04-08T14:23:33.768Z,87.79
2023-04-08T14:26:03.497Z,88.73
2023-04-08T14:28:34.001Z,87.03
2023-04-08T14:31:05.016Z,86.43
2023-04-08T14:33:34.785Z,84.90
2023-04-08T14:36:04.266Z,84.44
2023-04-08T14:38:35.622Z,84.81
2023-04-08T14:41:05.073Z,84.23
2023-04-08T14:43:35.373Z,84.55
2023-04-08T14:46:04.860Z,87.06
2023-04-08T14:48:34.626Z,86.25
2023-04-08T14:51:03.508Z,86.52
2023-04-08T14:53:35.084Z,87.17
2023-04-08T14:56:04.745Z,86.46
2023-04-08T14:58:35.222Z,85.72
2023-04-08T15:01:05.521Z,85.72
2023-04-08T15:03:35.854Z,86.43
2023-04-08T15:06:07.369Z,87.68
2023-04-08T15:08:38.449Z,87.64
2023-04-08T15:11:07.577Z,87.49
2023-04-08T15:13:37.530Z,87.69
2023-04-08T15:16:07.128Z,88.90
2023-04-08T15:18:36.297Z,88.70
2023-04-08T15:21:06.843Z,90.78
2023-04-08T15:23:42.487Z,90.61
2023-04-08T15:26:11.805Z,91.20
2023-04-08T15:28:42.835Z,92.02
2023-04-08T15:31:12.347Z,92.77
2023-04-08T15:33:43.181Z,93.52
2023-04-08T15:36:12.704Z,93.43
2023-04-08T15:38:44.161Z,95.48
2023-04-08T15:41:18.946Z,98.33
2023-04-08T15:43:47.931Z,98.31
2023-04-08T15:46:19.908Z,98.76
2023-04-08T15:48:49.500Z,97.10
2023-04-08T15:51:20.441Z,97.98
2023-04-08T15:53:51.744Z,98.61
2023-04-08T15:56:21.500Z,99.66
2023-04-08T15:58:52.343Z,98.15
2023-04-08T16:01:23.026Z,97.69
2023-04-08T16:03:52.010Z,98.34
2023-04-08T16:06:20.982Z,98.15
2023-04-08T16:08:51.485Z,97.08
2023-04-08T16:11:22.818Z,98.36
2023-04-08T16:13:53.290Z,98.00
2023-04-08T16:16:22.750Z,97.95
2023-04-08T16:18:54.104Z,97.79
2023-04-08T16:21:24.218Z,98.41
2023-04-08T16:23:55.569Z,97.85
2023-04-08T16:26:24.513Z,98.98
2023-04-08T16:28:54.079Z,98.79
2023-04-08T16:31:24.110Z,100.00
2023-04-08T16:33:53.652Z,100.00
2023-04-08T16:36:23.433Z,100.00
2023-04-08T16:38:53.770Z,100.00
2023-04-08T16:41:23.302Z,100.00
2023-04-08T16:43:53.199Z,100.00
2023-04-08T16:46:25.207Z,100.00
2023-04-08T16:48:55.234Z,100.00
2023-04-08T16:51:24.756Z,100.00
2023-04-08T16:53:56.360Z,100.00
2023-04-08T16:56:28.021Z,100.00
2023-04-08T16:58:57.937Z,100.00
2023-04-08T17:01:27.790Z,100.00
2023-04-08T17:03:57.682Z,100.00
2023-04-08T17:06:28.081Z,100.00
2023-04-08T17:09:00.596Z,100.00
2023-04-08T17:11:29.475Z,100.00
2023-04-08T17:13:58.692Z,100.00
2023-04-08T17:16:29.043Z,100.00
2023-04-08T17:18:59.084Z,100.00
2023-04-08T17:21:29.535Z,100.00
2023-04-08T17:23:59.947Z,100.00
2023-04-08T17:26:29.417Z,100.00
2023-04-08T17:28:58.842Z,100.00
2023-04-08T17:31:30.205Z,100.00
2023-04-08T17:34:00.180Z,100.00
2023-04-08T17:36:30.600Z,100.00
2023-04-08T17:39:02.095Z,100.00
2023-04-08T17:41:39.661Z,100.00
2023-04-08T17:44:10.609Z,100.00
2023-04-08T17:46:40.711Z,100.00
2023-04-08T17:49:12.907Z,100.00
2023-04-08T17:51:42.765Z,100.00
2023-04-08T17:54:14.156Z,100.00
2023-04-08T17:56:44.952Z,100.00
2023-04-08T17:59:15.287Z,100.00
2023-04-08T18:01:45.047Z,100.00
2023-04-08T18:04:14.671Z,100.00
2023-04-08T18:06:44.251Z,100.00
2023-04-08T18:09:15.094Z,100.00
2023-04-08T18:11:44.569Z,100.00
2023-04-08T18:14:14.236Z,100.00
2023-04-08T18:16:44.261Z,100.00
2023-04-08T18:19:14.669Z,100.00
2023-04-08T18:21:45.378Z,100.00
2023-04-08T18:24:16.736Z,100.00
2023-04-08T18:26:54.323Z,100.00
2023-04-08T18:29:27.783Z,100.00
2023-04-08T18:31:56.739Z,100.00
2023-04-08T18:34:27.373Z,100.00
2023-04-08T18:36:57.345Z,100.00
2023-04-08T18:39:29.020Z,100.00
2023-04-08T18:41:59.562Z,100.00
2023-04-08T18:44:29.818Z,100.00
2023-04-08T18:46:59.714Z,100.00
2023-04-08T18:49:33.843Z,100.00
2023-04-08T18:52:03.600Z,100.00
2023-04-08T18:54:34.703Z,100.00
2023-04-08T18:57:04.476Z,100.00
2023-04-08T18:59:33.927Z,100.00
2023-04-08T19:02:03.106Z,100.00
2023-04-08T19:04:33.456Z,100.00
2023-04-08T19:07:03.014Z,100.00
2023-04-08T19:09:32.664Z,100.00
2023-04-08T19:12:03.506Z,100.00
2023-04-08T19:14:32.793Z,100.00
2023-04-08T19:17:02.272Z,100.00
2023-04-08T19:19:33.269Z,100.00
2023-04-08T19:22:06.242Z,100.00
2023-04-08T19:24:36.663Z,100.00
2023-04-08T19:27:06.839Z,100.00
2023-04-08T19:29:36.274Z,100.00
2023-04-08T19:32:05.980Z,100.00
2023-04-08T19:34:39.822Z,100.00
2023-04-08T19:37:09.202Z,100.00
2023-04-08T19:39:38.136Z,100.00
2023-04-08T19:42:08.990Z,100.00
2023-04-08T19:44:38.016Z,100.00
2023-04-08T19:47:06.998Z,100.00
2023-04-08T19:49:37.156Z,100.00
2023-04-08T19:52:06.479Z,100.00
2023-04-08T19:54:35.397Z,100.00
2023-04-08T19:57:05.317Z,100.00
2023-04-08T19:59:36.582Z,100.00
2023-04-08T20:02:06.632Z,100.00
2023-04-08T20:04:36.465Z,100.00
2023-04-08T20:07:06.472Z,100.00
2023-04-08T20:09:36.391Z,100.00
2023-04-08T20:12:06.398Z,100.00
2023-04-08T20:14:40.466Z,100.00
2023-04-08T20:17:10.038Z,100.00
2023-04-08T20:19:40.897Z,100.00
2023-04-08T20:22:11.099Z,100.00
2023-04-08T20:24:40.633Z,100.00
2023-04-08T20:27:10.002Z,100.00
2023-04-08T20:29:41.929Z,100.00
2023-04-08T20:32:11.872Z,100.00
2023-04-08T20:34:41.536Z,100.00
2023-04-08T20:37:10.549Z,100.00
2023-04-08T20:39:39.656Z,100.00
2023-04-08T20:42:10.060Z,100.00
2023-04-08T20:44:41.289Z,100.00
2023-04-08T20:47:12.347Z,100.00
2023-04-08T20:49:42.819Z,100.00
2023-04-08T20:52:11.797Z,100.00
2023-04-08T20:54:41.166Z,100.00
2023-04-08T20:57:11.601Z,100.00
2023-04-08T20:59:43.590Z,100.00
2023-04-08T21:02:13.780Z,100.00
2023-04-08T21:04:44.526Z,100.00
2023-04-08T21:07:14.432Z,100.00
2023-04-08T21:09:44.064Z,100.00
2023-04-08T21:12:14.120Z,100.00
2023-04-08T21:14:46.649Z,100.00
2023-04-08T21:17:15.576Z,100.00
2023-04-08T21:19:45.302Z,100.00
2023-04-08T21:22:17.010Z,100.00
2023-04-08T21:24:46.940Z,100.00
2023-04-08T21:27:16.371Z,100.00
2023-04-08T21:29:47.756Z,100.00
2023-04-08T21:32:16.852Z,100.00
2023-04-08T21:34:46.482Z,100.00
2023-04-08T21:37:16.095Z,100.00
2023-04-08T21:39:45.726Z,100.00
2023-04-08T21:42:15.465Z,100.00
2023-04-08T21:44:47.189Z,100.00
2023-04-08T21:47:17.286Z,100.00
2023-04-08T21:49:46.276Z,100.00
2023-04-08T21:52:16.279Z,100.00
2023-04-08T21:54:44.697Z,100.00
2023-04-08T21:57:13.625Z,100.00
2023-04-08T21:59:43.249Z,100.00
2023-04-08T22:02:14.280Z,100.00
2023-04-08T22:04:45.380Z,100.00
2023-04-08T22:07:14.466Z,100.00
2023-04-08T22:09:43.873Z,100.00
2023-04-08T22:12:13.072Z,100.00
2023-04-08T22:14:43.544Z,100.00
2023-04-08T22:17:14.301Z,100.00
2023-04-08T22:19:44.310Z,100.00
2023-04-08T22:22:14.372Z,100.00
2023-04-08T22:24:44.798Z,100.00
2023-04-08T22:27:16.101Z,100.00
2023-04-08T22:29:45.332Z,100.00
2023-04-08T22:32:15.796Z,100.00
2023-04-08T22:34:45.870Z,100.00
2023-04-08T22:37:15.190Z,100.00
2023-04-08T22:39:45.365Z,100.00
2023-04-08T22:42:14.955Z,100.00
2023-04-08T22:44:44.354Z,100.00
2023-04-08T22:47:15.726Z,100.00
2023-04-08T22:49:46.301Z,100.00
2023-04-08T22:52:15.490Z,100.00
2023-04-08T22:54:43.931Z,100.00
2023-04-08T22:57:13.367Z,100.00
2023-04-08T22:59:42.843Z,100.00
2023-04-08T23:02:13.217Z,100.00
2023-04-08T23:04:44.420Z,100.00
2023-04-08T23:07:15.287Z,100.00
2023-04-08T23:09:45.314Z,100.00
2023-04-08T23:12:15.815Z,100.00
2023-04-08T23:14:45.867Z,100.00
2023-04-08T23:17:16.138Z,100.00
2023-04-08T23:19:47.138Z,100.00
2023-04-08T23:22:16.695Z,100.00
2023-04-08T23:24:46.348Z,100.00
2023-04-08T23:27:15.895Z,100.00
2023-04-08T23:29:44.972Z,100.00
2023-04-08T23:32:15.344Z,100.00
2023-04-08T23:34:45.622Z,100.00
2023-04-08T23:37:17.030Z,100.00
2023-04-08T23:39:46.515Z,100.00
2023-04-08T23:42:16.243Z,100.00
2023-04-08T23:44:47.930Z,100.00
2023-04-08T23:47:17.517Z,100.00
2023-04-08T23:49:49.175Z,100.00
2023-04-08T23:52:18.960Z,100.00
2023-04-08T23:54:52.017Z,100.00
2023-04-08T23:57:23.439Z,100.00
2023-04-08T23:59:53.668Z,100.00
